sensor_id;sensor_type;location;lat;lon;timestamp;temperature;humidity
20174;DHT22;10246;50.620;7.232;2024-03-02T00:00:32;9.00;1.00
20174;DHT22;10246;50.620;7.232;2024-03-02T00:02:58;9.00;1.00
20174;DHT22;10246;50.620;7.232;2024-03-02T00:05:25;9.00;1.00
20174;DHT22;10246;50.620;7.232;2024-03-02T00:07:53;9.00;1.00
20174;DHT22;10246;50.620;7.232;2024-03-02T00:10:23;9.00;1.00
20174;DHT22;10246;50.620;7.232;2024-03-02T00:12:54;9.10;1.00
20174;DHT22;10246;50.620;7.232;2024-03-02T00:15:41;9.10;1.00
20174;DHT22;10246;50.620;7.232;2024-03-02T00:18:10;9.20;1.00
20174;DHT22;10246;50.620;7.232;2024-03-02T00:20:38;9.30;1.00
20174;DHT22;10246;50.620;7.232;2024-03-02T00:23:05;9.30;1.00
20174;DHT22;10246;50.620;7.232;2024-03-02T00:25:38;9.40;1.00
20174;DHT22;10246;50.620;7.232;2024-03-02T00:28:05;9.40;1.00
20174;DHT22;10246;50.620;7.232;2024-03-02T00:33:27;9.40;1.00
20174;DHT22;10246;50.620;7.232;2024-03-02T00:35:56;9.50;1.00
20174;DHT22;10246;50.620;7.232;2024-03-02T00:38:24;9.50;1.00
20174;DHT22;10246;50.620;7.232;2024-03-02T00:40:51;9.50;1.00
20174;DHT22;10246;50.620;7.232;2024-03-02T00:43:45;9.50;1.00
20174;DHT22;10246;50.620;7.232;2024-03-02T00:46:16;9.50;1.00
20174;DHT22;10246;50.620;7.232;2024-03-02T00:48:54;9.50;1.00
20174;DHT22;10246;50.620;7.232;2024-03-02T00:51:23;9.50;1.00
20174;DHT22;10246;50.620;7.232;2024-03-02T00:53:50;9.50;1.00
20174;DHT22;10246;50.620;7.232;2024-03-02T00:56:18;9.60;1.00
20174;DHT22;10246;50.620;7.232;2024-03-02T00:58:44;9.60;1.00
20174;DHT22;10246;50.620;7.232;2024-03-02T01:01:11;9.60;1.00
20174;DHT22;10246;50.620;7.232;2024-03-02T01:03:39;9.60;1.00
20174;DHT22;10246;50.620;7.232;2024-03-02T01:06:07;9.70;1.00
20174;DHT22;10246;50.620;7.232;2024-03-02T01:08:34;9.70;1.00
20174;DHT22;10246;50.620;7.232;2024-03-02T01:11:01;9.70;1.00
20174;DHT22;10246;50.620;7.232;2024-03-02T01:13:27;9.70;1.00
20174;DHT22;10246;50.620;7.232;2024-03-02T01:15:54;9.60;1.00
20174;DHT22;10246;50.620;7.232;2024-03-02T01:18:21;9.60;1.00
20174;DHT22;10246;50.620;7.232;2024-03-02T01:20:50;9.70;1.00
20174;DHT22;10246;50.620;7.232;2024-03-02T01:23:18;9.60;1.00
20174;DHT22;10246;50.620;7.232;2024-03-02T01:25:45;9.60;1.00
20174;DHT22;10246;50.620;7.232;2024-03-02T01:28:12;9.60;1.00
20174;DHT22;10246;50.620;7.232;2024-03-02T01:30:39;9.60;1.00
20174;DHT22;10246;50.620;7.232;2024-03-02T01:33:06;9.60;1.00
20174;DHT22;10246;50.620;7.232;2024-03-02T01:35:32;9.60;1.00
20174;DHT22;10246;50.620;7.232;2024-03-02T01:38:01;9.60;1.00
20174;DHT22;10246;50.620;7.232;2024-03-02T01:40:28;9.60;1.00
20174;DHT22;10246;50.620;7.232;2024-03-02T01:42:55;9.60;1.00
20174;DHT22;10246;50.620;7.232;2024-03-02T01:45:23;9.60;1.00
20174;DHT22;10246;50.620;7.232;2024-03-02T01:47:50;9.50;1.00
20174;DHT22;10246;50.620;7.232;2024-03-02T01:50:25;9.50;1.00
20174;DHT22;10246;50.620;7.232;2024-03-02T01:52:52;9.50;1.00
20174;DHT22;10246;50.620;7.232;2024-03-02T01:55:20;9.50;1.00
20174;DHT22;10246;50.620;7.232;2024-03-02T01:57:54;9.50;1.00
20174;DHT22;10246;50.620;7.232;2024-03-02T02:00:22;9.50;1.00
20174;DHT22;10246;50.620;7.232;2024-03-02T02:02:50;9.50;1.00
20174;DHT22;10246;50.620;7.232;2024-03-02T02:05:17;9.50;1.00
20174;DHT22;10246;50.620;7.232;2024-03-02T02:07:44;9.50;1.00
20174;DHT22;10246;50.620;7.232;2024-03-02T02:10:11;9.50;1.00
20174;DHT22;10246;50.620;7.232;2024-03-02T02:12:39;9.40;1.00
20174;DHT22;10246;50.620;7.232;2024-03-02T02:15:21;9.40;1.00
20174;DHT22;10246;50.620;7.232;2024-03-02T02:17:48;9.40;1.00
20174;DHT22;10246;50.620;7.232;2024-03-02T02:20:15;9.40;1.00
20174;DHT22;10246;50.620;7.232;2024-03-02T02:22:54;9.40;1.00
20174;DHT22;10246;50.620;7.232;2024-03-02T02:25:21;9.30;1.00
20174;DHT22;10246;50.620;7.232;2024-03-02T02:27:48;9.30;1.00
20174;DHT22;10246;50.620;7.232;2024-03-02T02:30:18;9.30;1.00
20174;DHT22;10246;50.620;7.232;2024-03-02T02:32:45;9.20;1.00
20174;DHT22;10246;50.620;7.232;2024-03-02T02:35:12;9.30;1.00
20174;DHT22;10246;50.620;7.232;2024-03-02T02:37:39;9.20;1.00
20174;DHT22;10246;50.620;7.232;2024-03-02T02:40:08;9.20;1.00
20174;DHT22;10246;50.620;7.232;2024-03-02T02:42:35;9.10;1.00
20174;DHT22;10246;50.620;7.232;2024-03-02T02:45:02;9.10;1.00
20174;DHT22;10246;50.620;7.232;2024-03-02T02:47:29;9.10;1.00
20174;DHT22;10246;50.620;7.232;2024-03-02T02:49:56;9.00;1.00
20174;DHT22;10246;50.620;7.232;2024-03-02T02:52:22;9.00;1.00
20174;DHT22;10246;50.620;7.232;2024-03-02T02:54:49;9.00;1.00
20174;DHT22;10246;50.620;7.232;2024-03-02T02:57:18;9.00;1.00
20174;DHT22;10246;50.620;7.232;2024-03-02T02:59:44;9.00;1.00
20174;DHT22;10246;50.620;7.232;2024-03-02T03:02:11;8.90;1.00
20174;DHT22;10246;50.620;7.232;2024-03-02T03:04:40;8.90;1.00
20174;DHT22;10246;50.620;7.232;2024-03-02T03:07:06;8.90;1.00
20174;DHT22;10246;50.620;7.232;2024-03-02T03:09:33;8.90;1.00
20174;DHT22;10246;50.620;7.232;2024-03-02T03:12:02;8.90;1.00
20174;DHT22;10246;50.620;7.232;2024-03-02T03:14:31;8.80;1.00
20174;DHT22;10246;50.620;7.232;2024-03-02T03:16:57;8.80;1.00
20174;DHT22;10246;50.620;7.232;2024-03-02T03:19:24;8.80;1.00
20174;DHT22;10246;50.620;7.232;2024-03-02T03:21:51;8.70;1.00
20174;DHT22;10246;50.620;7.232;2024-03-02T03:24:17;8.70;1.00
20174;DHT22;10246;50.620;7.232;2024-03-02T03:26:44;8.70;1.00
20174;DHT22;10246;50.620;7.232;2024-03-02T03:29:11;8.70;1.00
20174;DHT22;10246;50.620;7.232;2024-03-02T03:31:39;8.60;1.00
20174;DHT22;10246;50.620;7.232;2024-03-02T03:34:05;8.60;1.00
20174;DHT22;10246;50.620;7.232;2024-03-02T03:36:32;8.60;1.00
20174;DHT22;10246;50.620;7.232;2024-03-02T03:38:59;8.60;1.00
20174;DHT22;10246;50.620;7.232;2024-03-02T03:41:27;8.50;1.00
20174;DHT22;10246;50.620;7.232;2024-03-02T03:43:54;8.50;1.00
20174;DHT22;10246;50.620;7.232;2024-03-02T03:46:21;8.40;1.00
20174;DHT22;10246;50.620;7.232;2024-03-02T03:48:49;8.50;1.00
20174;DHT22;10246;50.620;7.232;2024-03-02T03:51:16;8.50;1.00
20174;DHT22;10246;50.620;7.232;2024-03-02T03:53:42;8.40;1.00
20174;DHT22;10246;50.620;7.232;2024-03-02T03:56:09;8.40;1.00
20174;DHT22;10246;50.620;7.232;2024-03-02T03:58:36;8.50;1.00
20174;DHT22;10246;50.620;7.232;2024-03-02T04:01:03;8.50;1.00
20174;DHT22;10246;50.620;7.232;2024-03-02T04:03:30;8.60;1.00
20174;DHT22;10246;50.620;7.232;2024-03-02T04:05:58;8.60;1.00
20174;DHT22;10246;50.620;7.232;2024-03-02T04:08:24;8.60;1.00
20174;DHT22;10246;50.620;7.232;2024-03-02T04:10:51;8.60;1.00
20174;DHT22;10246;50.620;7.232;2024-03-02T04:13:18;8.60;1.00
20174;DHT22;10246;50.620;7.232;2024-03-02T04:15:44;8.60;1.00
20174;DHT22;10246;50.620;7.232;2024-03-02T04:18:11;8.50;1.00
20174;DHT22;10246;50.620;7.232;2024-03-02T04:20:38;8.50;1.00
20174;DHT22;10246;50.620;7.232;2024-03-02T04:23:06;8.50;1.00
20174;DHT22;10246;50.620;7.232;2024-03-02T04:25:33;8.40;1.00
20174;DHT22;10246;50.620;7.232;2024-03-02T04:27:59;8.40;1.00
20174;DHT22;10246;50.620;7.232;2024-03-02T04:30:26;8.40;1.00
20174;DHT22;10246;50.620;7.232;2024-03-02T04:32:53;8.30;1.00
20174;DHT22;10246;50.620;7.232;2024-03-02T04:35:19;8.30;1.00
20174;DHT22;10246;50.620;7.232;2024-03-02T04:37:46;8.20;1.00
20174;DHT22;10246;50.620;7.232;2024-03-02T04:40:15;8.20;1.00
20174;DHT22;10246;50.620;7.232;2024-03-02T04:42:41;8.20;1.00
20174;DHT22;10246;50.620;7.232;2024-03-02T04:45:08;8.20;1.00
20174;DHT22;10246;50.620;7.232;2024-03-02T04:47:35;8.20;1.00
20174;DHT22;10246;50.620;7.232;2024-03-02T04:50:02;8.20;1.00
20174;DHT22;10246;50.620;7.232;2024-03-02T04:52:29;8.10;1.00
20174;DHT22;10246;50.620;7.232;2024-03-02T04:54:56;8.10;1.00
20174;DHT22;10246;50.620;7.232;2024-03-02T04:57:56;8.10;1.00
20174;DHT22;10246;50.620;7.232;2024-03-02T05:00:23;8.10;1.00
20174;DHT22;10246;50.620;7.232;2024-03-02T05:02:49;8.10;1.00
20174;DHT22;10246;50.620;7.232;2024-03-02T05:05:16;8.10;1.00
20174;DHT22;10246;50.620;7.232;2024-03-02T05:07:43;8.10;1.00
20174;DHT22;10246;50.620;7.232;2024-03-02T05:10:10;8.10;1.00
20174;DHT22;10246;50.620;7.232;2024-03-02T05:12:37;8.10;1.00
20174;DHT22;10246;50.620;7.232;2024-03-02T05:15:23;8.10;1.00
20174;DHT22;10246;50.620;7.232;2024-03-02T05:17:50;8.10;1.00
20174;DHT22;10246;50.620;7.232;2024-03-02T05:20:17;8.10;1.00
20174;DHT22;10246;50.620;7.232;2024-03-02T05:22:44;8.10;1.00
20174;DHT22;10246;50.620;7.232;2024-03-02T05:25:10;8.20;1.00
20174;DHT22;10246;50.620;7.232;2024-03-02T05:27:37;8.10;1.00
20174;DHT22;10246;50.620;7.232;2024-03-02T05:30:05;8.20;1.00
20174;DHT22;10246;50.620;7.232;2024-03-02T05:32:34;8.20;1.00
20174;DHT22;10246;50.620;7.232;2024-03-02T05:35:00;8.20;1.00
20174;DHT22;10246;50.620;7.232;2024-03-02T05:37:28;8.20;1.00
20174;DHT22;10246;50.620;7.232;2024-03-02T05:39:55;8.30;1.00
20174;DHT22;10246;50.620;7.232;2024-03-02T05:42:22;8.30;1.00
20174;DHT22;10246;50.620;7.232;2024-03-02T05:44:48;8.30;1.00
20174;DHT22;10246;50.620;7.232;2024-03-02T05:47:15;8.30;1.00
20174;DHT22;10246;50.620;7.232;2024-03-02T05:49:43;8.30;1.00
20174;DHT22;10246;50.620;7.232;2024-03-02T05:52:10;8.40;1.00
20174;DHT22;10246;50.620;7.232;2024-03-02T05:54:37;8.40;1.00
20174;DHT22;10246;50.620;7.232;2024-03-02T05:57:04;8.40;1.00
20174;DHT22;10246;50.620;7.232;2024-03-02T05:59:52;8.40;1.00
20174;DHT22;10246;50.620;7.232;2024-03-02T06:02:19;8.40;1.00
20174;DHT22;10246;50.620;7.232;2024-03-02T06:04:47;8.40;1.00
20174;DHT22;10246;50.620;7.232;2024-03-02T06:07:13;8.30;1.00
20174;DHT22;10246;50.620;7.232;2024-03-02T06:09:41;8.20;1.00
20174;DHT22;10246;50.620;7.232;2024-03-02T06:12:08;8.10;1.00
20174;DHT22;10246;50.620;7.232;2024-03-02T06:14:34;8.10;1.00
20174;DHT22;10246;50.620;7.232;2024-03-02T06:17:01;8.00;1.00
20174;DHT22;10246;50.620;7.232;2024-03-02T06:19:28;7.90;1.00
20174;DHT22;10246;50.620;7.232;2024-03-02T06:21:56;7.90;1.00
20174;DHT22;10246;50.620;7.232;2024-03-02T06:24:23;7.90;1.00
20174;DHT22;10246;50.620;7.232;2024-03-02T06:26:51;7.80;1.00
20174;DHT22;10246;50.620;7.232;2024-03-02T06:29:18;7.80;1.00
20174;DHT22;10246;50.620;7.232;2024-03-02T06:31:45;7.80;1.00
20174;DHT22;10246;50.620;7.232;2024-03-02T06:34:11;7.90;1.00
20174;DHT22;10246;50.620;7.232;2024-03-02T06:36:38;8.00;1.00
20174;DHT22;10246;50.620;7.232;2024-03-02T06:39:07;8.00;1.00
20174;DHT22;10246;50.620;7.232;2024-03-02T06:41:35;8.10;1.00
20174;DHT22;10246;50.620;7.232;2024-03-02T06:44:02;8.00;1.00
20174;DHT22;10246;50.620;7.232;2024-03-02T06:46:29;8.10;1.00
20174;DHT22;10246;50.620;7.232;2024-03-02T06:48:56;8.10;1.00
20174;DHT22;10246;50.620;7.232;2024-03-02T06:51:22;8.10;1.00
20174;DHT22;10246;50.620;7.232;2024-03-02T06:53:49;8.20;1.00
20174;DHT22;10246;50.620;7.232;2024-03-02T06:56:17;8.20;1.00
20174;DHT22;10246;50.620;7.232;2024-03-02T06:58:44;8.20;1.00
20174;DHT22;10246;50.620;7.232;2024-03-02T07:01:10;8.20;1.00
20174;DHT22;10246;50.620;7.232;2024-03-02T07:03:37;8.30;1.00
20174;DHT22;10246;50.620;7.232;2024-03-02T07:06:04;8.30;1.00
20174;DHT22;10246;50.620;7.232;2024-03-02T07:08:31;8.40;1.00
20174;DHT22;10246;50.620;7.232;2024-03-02T07:10:58;8.30;1.00
20174;DHT22;10246;50.620;7.232;2024-03-02T07:13:26;8.40;1.00
20174;DHT22;10246;50.620;7.232;2024-03-02T07:15:53;8.40;1.00
20174;DHT22;10246;50.620;7.232;2024-03-02T07:18:48;8.50;1.00
20174;DHT22;10246;50.620;7.232;2024-03-02T07:21:17;8.50;1.00
20174;DHT22;10246;50.620;7.232;2024-03-02T07:23:44;8.50;1.00
20174;DHT22;10246;50.620;7.232;2024-03-02T07:26:10;8.50;1.00
20174;DHT22;10246;50.620;7.232;2024-03-02T07:28:37;8.50;1.00
20174;DHT22;10246;50.620;7.232;2024-03-02T07:31:04;8.50;1.00
20174;DHT22;10246;50.620;7.232;2024-03-02T07:33:31;8.60;1.00
20174;DHT22;10246;50.620;7.232;2024-03-02T07:35:59;8.70;1.00
20174;DHT22;10246;50.620;7.232;2024-03-02T07:38:27;8.70;1.00
20174;DHT22;10246;50.620;7.232;2024-03-02T07:40:54;8.70;1.00
20174;DHT22;10246;50.620;7.232;2024-03-02T07:43:21;8.70;1.00
20174;DHT22;10246;50.620;7.232;2024-03-02T07:45:49;8.80;1.00
20174;DHT22;10246;50.620;7.232;2024-03-02T07:48:16;8.90;1.00
20174;DHT22;10246;50.620;7.232;2024-03-02T07:50:43;9.00;1.00
20174;DHT22;10246;50.620;7.232;2024-03-02T07:53:10;9.00;1.00
20174;DHT22;10246;50.620;7.232;2024-03-02T07:55:37;9.10;1.00
20174;DHT22;10246;50.620;7.232;2024-03-02T07:58:03;9.20;1.00
20174;DHT22;10246;50.620;7.232;2024-03-02T08:00:31;9.20;1.00
20174;DHT22;10246;50.620;7.232;2024-03-02T08:02:59;9.20;1.00
20174;DHT22;10246;50.620;7.232;2024-03-02T08:05:27;9.30;1.00
20174;DHT22;10246;50.620;7.232;2024-03-02T08:07:53;9.50;1.00
20174;DHT22;10246;50.620;7.232;2024-03-02T08:10:20;9.50;1.00
20174;DHT22;10246;50.620;7.232;2024-03-02T08:12:47;9.60;1.00
20174;DHT22;10246;50.620;7.232;2024-03-02T08:15:14;9.70;1.00
20174;DHT22;10246;50.620;7.232;2024-03-02T08:17:40;9.70;1.00
20174;DHT22;10246;50.620;7.232;2024-03-02T08:20:12;9.80;1.00
20174;DHT22;10246;50.620;7.232;2024-03-02T08:22:39;9.80;1.00
20174;DHT22;10246;50.620;7.232;2024-03-02T08:25:07;9.90;1.00
20174;DHT22;10246;50.620;7.232;2024-03-02T08:27:35;9.90;1.00
20174;DHT22;10246;50.620;7.232;2024-03-02T08:30:02;10.00;1.00
20174;DHT22;10246;50.620;7.232;2024-03-02T08:32:31;10.10;1.00
20174;DHT22;10246;50.620;7.232;2024-03-02T08:34:58;10.20;1.00
20174;DHT22;10246;50.620;7.232;2024-03-02T08:37:26;10.20;1.00
20174;DHT22;10246;50.620;7.232;2024-03-02T08:39:53;10.30;1.00
20174;DHT22;10246;50.620;7.232;2024-03-02T08:42:20;10.30;1.00
20174;DHT22;10246;50.620;7.232;2024-03-02T08:44:47;10.50;1.00
20174;DHT22;10246;50.620;7.232;2024-03-02T08:47:14;10.50;1.00
20174;DHT22;10246;50.620;7.232;2024-03-02T08:49:41;10.60;1.00
20174;DHT22;10246;50.620;7.232;2024-03-02T08:52:08;10.60;1.00
20174;DHT22;10246;50.620;7.232;2024-03-02T08:54:36;10.70;1.00
20174;DHT22;10246;50.620;7.232;2024-03-02T08:57:03;10.80;1.00
20174;DHT22;10246;50.620;7.232;2024-03-02T08:59:30;10.80;1.00
20174;DHT22;10246;50.620;7.232;2024-03-02T09:01:57;10.90;1.00
20174;DHT22;10246;50.620;7.232;2024-03-02T09:04:24;11.00;1.00
20174;DHT22;10246;50.620;7.232;2024-03-02T09:06:51;11.10;1.00
20174;DHT22;10246;50.620;7.232;2024-03-02T09:09:18;11.10;1.00
20174;DHT22;10246;50.620;7.232;2024-03-02T09:11:47;11.20;1.00
20174;DHT22;10246;50.620;7.232;2024-03-02T09:14:14;11.30;1.00
20174;DHT22;10246;50.620;7.232;2024-03-02T09:16:41;11.30;1.00
20174;DHT22;10246;50.620;7.232;2024-03-02T09:19:07;11.30;1.00
20174;DHT22;10246;50.620;7.232;2024-03-02T09:21:35;11.40;1.00
20174;DHT22;10246;50.620;7.232;2024-03-02T09:24:01;11.60;1.00
20174;DHT22;10246;50.620;7.232;2024-03-02T09:26:29;11.60;1.00
20174;DHT22;10246;50.620;7.232;2024-03-02T09:28:57;11.80;1.00
20174;DHT22;10246;50.620;7.232;2024-03-02T09:31:23;11.80;1.00
20174;DHT22;10246;50.620;7.232;2024-03-02T09:33:50;11.90;1.00
20174;DHT22;10246;50.620;7.232;2024-03-02T09:36:17;12.00;1.00
20174;DHT22;10246;50.620;7.232;2024-03-02T09:38:44;12.10;1.00
20174;DHT22;10246;50.620;7.232;2024-03-02T09:41:12;12.10;1.00
20174;DHT22;10246;50.620;7.232;2024-03-02T09:43:39;12.20;1.00
20174;DHT22;10246;50.620;7.232;2024-03-02T09:46:09;12.30;1.00
20174;DHT22;10246;50.620;7.232;2024-03-02T09:48:35;12.40;1.00
20174;DHT22;10246;50.620;7.232;2024-03-02T09:51:04;12.40;1.00
20174;DHT22;10246;50.620;7.232;2024-03-02T09:53:32;12.50;1.00
20174;DHT22;10246;50.620;7.232;2024-03-02T09:55:59;12.70;1.00
20174;DHT22;10246;50.620;7.232;2024-03-02T09:58:26;12.60;1.00
20174;DHT22;10246;50.620;7.232;2024-03-02T10:00:52;12.70;1.00
20174;DHT22;10246;50.620;7.232;2024-03-02T10:03:22;12.80;1.00
20174;DHT22;10246;50.620;7.232;2024-03-02T10:05:49;12.80;1.00
20174;DHT22;10246;50.620;7.232;2024-03-02T10:08:17;13.00;1.00
20174;DHT22;10246;50.620;7.232;2024-03-02T10:10:44;13.10;1.00
20174;DHT22;10246;50.620;7.232;2024-03-02T10:13:12;13.10;1.00
20174;DHT22;10246;50.620;7.232;2024-03-02T10:15:40;13.20;1.00
20174;DHT22;10246;50.620;7.232;2024-03-02T10:18:09;13.20;1.00
20174;DHT22;10246;50.620;7.232;2024-03-02T10:20:39;13.20;1.00
20174;DHT22;10246;50.620;7.232;2024-03-02T10:23:12;13.20;1.00
20174;DHT22;10246;50.620;7.232;2024-03-02T10:25:40;13.30;1.00
20174;DHT22;10246;50.620;7.232;2024-03-02T10:28:07;13.40;1.00
20174;DHT22;10246;50.620;7.232;2024-03-02T10:30:34;13.50;1.00
20174;DHT22;10246;50.620;7.232;2024-03-02T10:33:01;13.60;1.00
20174;DHT22;10246;50.620;7.232;2024-03-02T10:35:28;13.60;1.00
20174;DHT22;10246;50.620;7.232;2024-03-02T10:37:59;13.90;1.00
20174;DHT22;10246;50.620;7.232;2024-03-02T10:40:27;14.00;1.00
20174;DHT22;10246;50.620;7.232;2024-03-02T10:42:53;14.00;1.00
20174;DHT22;10246;50.620;7.232;2024-03-02T10:45:21;13.80;1.00
20174;DHT22;10246;50.620;7.232;2024-03-02T10:47:48;13.60;1.00
20174;DHT22;10246;50.620;7.232;2024-03-02T10:50:16;13.60;1.00
20174;DHT22;10246;50.620;7.232;2024-03-02T10:52:42;13.50;1.00
20174;DHT22;10246;50.620;7.232;2024-03-02T10:55:10;13.50;1.00
20174;DHT22;10246;50.620;7.232;2024-03-02T10:57:41;13.50;1.00
20174;DHT22;10246;50.620;7.232;2024-03-02T11:00:12;13.40;1.00
20174;DHT22;10246;50.620;7.232;2024-03-02T11:02:44;13.70;1.00
20174;DHT22;10246;50.620;7.232;2024-03-02T11:05:18;13.90;1.00
20174;DHT22;10246;50.620;7.232;2024-03-02T11:07:50;13.80;1.00
20174;DHT22;10246;50.620;7.232;2024-03-02T11:10:19;13.80;1.00
20174;DHT22;10246;50.620;7.232;2024-03-02T11:12:55;13.70;1.00
20174;DHT22;10246;50.620;7.232;2024-03-02T11:15:25;13.70;1.00
20174;DHT22;10246;50.620;7.232;2024-03-02T11:17:52;13.70;1.00
20174;DHT22;10246;50.620;7.232;2024-03-02T11:20:19;13.60;1.00
20174;DHT22;10246;50.620;7.232;2024-03-02T11:22:46;13.60;1.00
20174;DHT22;10246;50.620;7.232;2024-03-02T11:25:24;13.60;1.00
20174;DHT22;10246;50.620;7.232;2024-03-02T11:28:05;13.50;1.00
20174;DHT22;10246;50.620;7.232;2024-03-02T11:30:50;13.50;1.00
20174;DHT22;10246;50.620;7.232;2024-03-02T11:33:24;13.50;1.00
20174;DHT22;10246;50.620;7.232;2024-03-02T11:35:52;13.50;1.00
20174;DHT22;10246;50.620;7.232;2024-03-02T11:38:19;13.60;1.00
20174;DHT22;10246;50.620;7.232;2024-03-02T11:40:47;13.70;1.00
20174;DHT22;10246;50.620;7.232;2024-03-02T11:43:14;13.70;1.00
20174;DHT22;10246;50.620;7.232;2024-03-02T11:45:43;13.80;1.00
20174;DHT22;10246;50.620;7.232;2024-03-02T11:48:14;14.00;1.00
20174;DHT22;10246;50.620;7.232;2024-03-02T11:50:42;14.20;1.00
20174;DHT22;10246;50.620;7.232;2024-03-02T11:53:12;14.10;1.00
20174;DHT22;10246;50.620;7.232;2024-03-02T11:55:40;14.10;1.00
20174;DHT22;10246;50.620;7.232;2024-03-02T11:58:08;14.00;1.00
20174;DHT22;10246;50.620;7.232;2024-03-02T12:00:35;13.90;1.00
20174;DHT22;10246;50.620;7.232;2024-03-02T12:03:04;13.90;1.00
20174;DHT22;10246;50.620;7.232;2024-03-02T12:05:32;13.80;1.00
20174;DHT22;10246;50.620;7.232;2024-03-02T12:08:00;13.90;1.00
20174;DHT22;10246;50.620;7.232;2024-03-02T12:10:27;13.90;1.00
20174;DHT22;10246;50.620;7.232;2024-03-02T12:12:57;13.80;1.00
20174;DHT22;10246;50.620;7.232;2024-03-02T12:15:28;13.90;1.00
20174;DHT22;10246;50.620;7.232;2024-03-02T12:17:56;14.00;1.00
20174;DHT22;10246;50.620;7.232;2024-03-02T12:20:23;14.10;1.00
20174;DHT22;10246;50.620;7.232;2024-03-02T12:22:51;14.20;1.00
20174;DHT22;10246;50.620;7.232;2024-03-02T12:25:19;14.10;1.00
20174;DHT22;10246;50.620;7.232;2024-03-02T12:27:47;14.20;1.00
20174;DHT22;10246;50.620;7.232;2024-03-02T12:30:14;14.20;1.00
20174;DHT22;10246;50.620;7.232;2024-03-02T12:32:43;14.30;1.00
20174;DHT22;10246;50.620;7.232;2024-03-02T12:35:10;14.50;1.00
20174;DHT22;10246;50.620;7.232;2024-03-02T12:37:44;14.70;1.00
20174;DHT22;10246;50.620;7.232;2024-03-02T12:40:11;15.00;1.00
20174;DHT22;10246;50.620;7.232;2024-03-02T12:42:38;15.30;1.00
20174;DHT22;10246;50.620;7.232;2024-03-02T12:45:05;15.20;1.00
20174;DHT22;10246;50.620;7.232;2024-03-02T12:47:33;15.20;1.00
20174;DHT22;10246;50.620;7.232;2024-03-02T12:50:01;15.30;1.00
20174;DHT22;10246;50.620;7.232;2024-03-02T12:52:28;15.20;1.00
20174;DHT22;10246;50.620;7.232;2024-03-02T12:54:55;15.20;1.00
20174;DHT22;10246;50.620;7.232;2024-03-02T12:57:25;15.10;1.00
20174;DHT22;10246;50.620;7.232;2024-03-02T12:59:56;15.20;1.00
20174;DHT22;10246;50.620;7.232;2024-03-02T13:02:23;15.20;1.00
20174;DHT22;10246;50.620;7.232;2024-03-02T13:04:52;15.20;1.00
20174;DHT22;10246;50.620;7.232;2024-03-02T13:07:21;15.30;1.00
20174;DHT22;10246;50.620;7.232;2024-03-02T13:09:49;15.50;1.00
20174;DHT22;10246;50.620;7.232;2024-03-02T13:12:17;15.80;1.00
20174;DHT22;10246;50.620;7.232;2024-03-02T13:14:44;16.10;1.00
20174;DHT22;10246;50.620;7.232;2024-03-02T13:17:10;16.10;1.00
20174;DHT22;10246;50.620;7.232;2024-03-02T13:19:50;16.10;1.00
20174;DHT22;10246;50.620;7.232;2024-03-02T13:22:16;16.20;1.00
20174;DHT22;10246;50.620;7.232;2024-03-02T13:24:44;16.30;1.00
20174;DHT22;10246;50.620;7.232;2024-03-02T13:27:11;16.40;1.00
20174;DHT22;10246;50.620;7.232;2024-03-02T13:29:38;16.30;1.00
20174;DHT22;10246;50.620;7.232;2024-03-02T13:32:05;16.20;1.00
20174;DHT22;10246;50.620;7.232;2024-03-02T13:34:32;16.20;1.00
20174;DHT22;10246;50.620;7.232;2024-03-02T13:36:59;16.10;1.00
20174;DHT22;10246;50.620;7.232;2024-03-02T13:39:27;16.00;1.00
20174;DHT22;10246;50.620;7.232;2024-03-02T13:41:57;15.90;1.00
20174;DHT22;10246;50.620;7.232;2024-03-02T13:44:29;16.00;1.00
20174;DHT22;10246;50.620;7.232;2024-03-02T13:46:56;16.10;1.00
20174;DHT22;10246;50.620;7.232;2024-03-02T13:49:23;16.00;1.00
20174;DHT22;10246;50.620;7.232;2024-03-02T13:51:54;15.90;1.00
20174;DHT22;10246;50.620;7.232;2024-03-02T13:54:22;15.90;1.00
20174;DHT22;10246;50.620;7.232;2024-03-02T13:56:48;15.70;1.00
20174;DHT22;10246;50.620;7.232;2024-03-02T13:59:16;15.60;1.00
20174;DHT22;10246;50.620;7.232;2024-03-02T14:01:44;15.60;1.00
20174;DHT22;10246;50.620;7.232;2024-03-02T14:04:11;15.70;1.00
20174;DHT22;10246;50.620;7.232;2024-03-02T14:06:38;15.90;1.00
20174;DHT22;10246;50.620;7.232;2024-03-02T14:09:05;16.20;1.00
20174;DHT22;10246;50.620;7.232;2024-03-02T14:11:31;16.40;1.00
20174;DHT22;10246;50.620;7.232;2024-03-02T14:13:58;16.40;1.00
20174;DHT22;10246;50.620;7.232;2024-03-02T14:16:27;16.30;1.00
20174;DHT22;10246;50.620;7.232;2024-03-02T14:18:54;16.30;1.00
20174;DHT22;10246;50.620;7.232;2024-03-02T14:21:20;16.40;1.00
20174;DHT22;10246;50.620;7.232;2024-03-02T14:23:47;16.20;1.00
20174;DHT22;10246;50.620;7.232;2024-03-02T14:26:14;16.10;1.00
20174;DHT22;10246;50.620;7.232;2024-03-02T14:28:40;15.90;1.00
20174;DHT22;10246;50.620;7.232;2024-03-02T14:31:07;15.90;1.00
20174;DHT22;10246;50.620;7.232;2024-03-02T14:33:35;15.70;1.00
20174;DHT22;10246;50.620;7.232;2024-03-02T14:36:02;15.60;1.00
20174;DHT22;10246;50.620;7.232;2024-03-02T14:38:30;15.50;1.00
20174;DHT22;10246;50.620;7.232;2024-03-02T14:40:56;15.60;1.00
20174;DHT22;10246;50.620;7.232;2024-03-02T14:43:24;15.60;1.00
20174;DHT22;10246;50.620;7.232;2024-03-02T14:45:50;15.50;1.00
20174;DHT22;10246;50.620;7.232;2024-03-02T14:48:17;15.40;1.00
20174;DHT22;10246;50.620;7.232;2024-03-02T14:50:45;15.40;1.00
20174;DHT22;10246;50.620;7.232;2024-03-02T14:53:12;15.40;1.00
20174;DHT22;10246;50.620;7.232;2024-03-02T14:55:39;15.30;1.00
20174;DHT22;10246;50.620;7.232;2024-03-02T14:58:05;15.30;1.00
20174;DHT22;10246;50.620;7.232;2024-03-02T15:00:33;15.20;1.00
20174;DHT22;10246;50.620;7.232;2024-03-02T15:03:00;15.20;1.00
20174;DHT22;10246;50.620;7.232;2024-03-02T15:05:27;15.10;1.00
20174;DHT22;10246;50.620;7.232;2024-03-02T15:07:55;15.10;1.00
20174;DHT22;10246;50.620;7.232;2024-03-02T15:10:24;15.00;1.00
20174;DHT22;10246;50.620;7.232;2024-03-02T15:12:51;14.90;1.00
20174;DHT22;10246;50.620;7.232;2024-03-02T15:15:17;14.90;1.00
20174;DHT22;10246;50.620;7.232;2024-03-02T15:17:44;15.00;1.00
20174;DHT22;10246;50.620;7.232;2024-03-02T15:20:11;14.90;1.00
20174;DHT22;10246;50.620;7.232;2024-03-02T15:22:38;14.90;1.00
20174;DHT22;10246;50.620;7.232;2024-03-02T15:25:06;14.90;1.00
20174;DHT22;10246;50.620;7.232;2024-03-02T15:27:33;15.00;1.00
20174;DHT22;10246;50.620;7.232;2024-03-02T15:30:00;15.00;1.00
20174;DHT22;10246;50.620;7.232;2024-03-02T15:32:27;15.00;1.00
20174;DHT22;10246;50.620;7.232;2024-03-02T15:34:53;15.00;1.00
20174;DHT22;10246;50.620;7.232;2024-03-02T15:37:20;15.00;1.00
20174;DHT22;10246;50.620;7.232;2024-03-02T15:39:47;15.00;1.00
20174;DHT22;10246;50.620;7.232;2024-03-02T15:42:15;15.00;1.00
20174;DHT22;10246;50.620;7.232;2024-03-02T15:44:43;15.00;1.00
20174;DHT22;10246;50.620;7.232;2024-03-02T15:47:10;15.00;1.00
20174;DHT22;10246;50.620;7.232;2024-03-02T15:49:36;14.90;1.00
20174;DHT22;10246;50.620;7.232;2024-03-02T15:52:03;14.90;1.00
20174;DHT22;10246;50.620;7.232;2024-03-02T15:54:30;14.90;1.00
20174;DHT22;10246;50.620;7.232;2024-03-02T15:56:57;14.90;1.00
20174;DHT22;10246;50.620;7.232;2024-03-02T15:59:25;14.90;1.00
20174;DHT22;10246;50.620;7.232;2024-03-02T16:01:52;14.90;1.00